createdAt,value
2017-11-11T00:00:17.805Z,99301.70
2017-11-11T00:02:43.775Z,99303.30
2017-11-11T00:05:09.786Z,99297.88
2017-11-11T00:07:35.782Z,99297.42
2017-11-11T00:10:01.758Z,99298.69
2017-11-11T00:12:27.807Z,99299.50
2017-11-11T00:14:53.807Z,99300.83
2017-11-11T00:17:19.762Z,99312.89
2017-11-11T00:19:45.724Z,99314.58
2017-11-11T00:22:11.695Z,99314.97
2017-11-11T00:24:37.670Z,99317.86
2017-11-11T00:27:03.604Z,99318.27
2017-11-11T00:29:29.580Z,99316.17
2017-11-11T00:31:55.672Z,99314.47
2017-11-11T00:34:21.691Z,99312.41
2017-11-11T00:36:47.773Z,99314.89
2017-11-11T00:39:13.833Z,99316.59
2017-11-11T00:41:39.784Z,99318.18
2017-11-11T00:44:05.733Z,99319.53
2017-11-11T00:46:31.715Z,99324.51
2017-11-11T00:48:57.792Z,99320.38
2017-11-11T00:51:23.787Z,99321.17
2017-11-11T00:53:49.772Z,99311.42
2017-11-11T00:56:15.774Z,99316.14
2017-11-11T00:58:41.792Z,99316.04
2017-11-11T01:01:07.792Z,99318.98
2017-11-11T01:03:33.810Z,99319.46
2017-11-11T01:05:59.836Z,99317.41
2017-11-11T01:08:25.814Z,99315.69
2017-11-11T01:10:51.831Z,99314.36
2017-11-11T01:13:17.848Z,99313.61
2017-11-11T01:15:43.879Z,99307.72
2017-11-11T01:30:48.108Z,99307.73
2017-11-11T01:40:49.806Z,99311.45
2017-11-11T01:43:17.802Z,99311.03
2017-11-11T01:45:48.131Z,99312.27
2017-11-11T01:48:22.616Z,99302.66
2017-11-11T01:55:55.217Z,99300.03
2017-11-11T01:58:21.167Z,99300.98
2017-11-11T02:00:47.156Z,99303.91
2017-11-11T02:03:13.118Z,99302.62
2017-11-11T02:05:39.052Z,99307.36
2017-11-11T02:08:04.986Z,99313.19
2017-11-11T02:10:31.968Z,99311.02
2017-11-11T02:12:57.910Z,99308.52
2017-11-11T02:15:23.847Z,99308.48
2017-11-11T02:17:49.789Z,99310.59
2017-11-11T02:20:19.906Z,99314.73
2017-11-11T02:22:45.875Z,99306.49
2017-11-11T02:25:11.834Z,99316.88
2017-11-11T02:27:37.782Z,99310.64
2017-11-11T02:30:03.748Z,99313.58
2017-11-11T02:35:01.073Z,99302.53
2017-11-11T02:37:27.020Z,99300.08
2017-11-11T02:39:52.972Z,99293.43
2017-11-11T02:42:18.953Z,99299.69
2017-11-11T02:44:44.892Z,99294.66
2017-11-11T02:47:10.848Z,99288.41
2017-11-11T02:49:36.810Z,99291.36
2017-11-11T02:52:02.763Z,99287.50
2017-11-11T02:54:28.712Z,99280.44
2017-11-11T02:56:54.679Z,99287.14
2017-11-11T02:59:20.635Z,99287.55
2017-11-11T03:01:46.622Z,99281.70
2017-11-11T03:04:12.559Z,99287.15
2017-11-11T03:06:38.506Z,99284.69
2017-11-11T03:09:04.469Z,99281.67
2017-11-11T03:11:30.414Z,99281.26
2017-11-11T03:13:56.362Z,99287.91
2017-11-11T03:16:22.299Z,99283.38
2017-11-11T03:18:48.260Z,99269.92
2017-11-11T03:21:14.201Z,99276.19
2017-11-11T03:23:40.151Z,99269.02
2017-11-11T03:26:06.087Z,99266.52
2017-11-11T03:28:32.048Z,99264.44
2017-11-11T03:30:57.994Z,99266.97
2017-11-11T03:33:23.919Z,99262.80
2017-11-11T03:35:49.870Z,99254.74
2017-11-11T03:38:15.829Z,99261.86
2017-11-11T03:40:41.769Z,99257.34
2017-11-11T03:43:07.715Z,99254.67
2017-11-11T03:45:33.705Z,99263.98
2017-11-11T03:47:59.636Z,99251.45
2017-11-11T03:50:25.605Z,99246.02
2017-11-11T03:52:51.551Z,99243.52
2017-11-11T03:55:17.526Z,99249.72
2017-11-11T03:57:43.467Z,99248.84
2017-11-11T04:00:09.428Z,99246.41
2017-11-11T04:02:35.368Z,99245.58
2017-11-11T04:05:01.315Z,99235.93
2017-11-11T04:07:27.289Z,99237.55
2017-11-11T04:09:53.236Z,99233.45
2017-11-11T04:12:19.177Z,99241.39
2017-11-11T04:14:45.123Z,99235.48
2017-11-11T04:17:11.100Z,99234.24
2017-11-11T04:19:37.059Z,99227.95
2017-11-11T04:22:03.029Z,99227.14
2017-11-11T04:24:29.007Z,99239.80
2017-11-11T04:26:54.971Z,99238.94
2017-11-11T04:29:20.945Z,99236.33
2017-11-11T04:31:46.929Z,99235.07
2017-11-11T04:34:12.876Z,99227.12
2017-11-11T04:36:38.845Z,99233.03
2017-11-11T04:39:04.805Z,99235.16
2017-11-11T04:41:30.749Z,99239.25
2017-11-11T04:43:56.709Z,99237.64
2017-11-11T04:46:22.651Z,99242.64
2017-11-11T04:48:48.577Z,99241.42
2017-11-11T04:51:14.525Z,99237.61
2017-11-11T04:53:40.451Z,99246.03
2017-11-11T04:56:06.384Z,99247.35
2017-11-11T04:58:32.347Z,99243.55
2017-11-11T05:00:58.278Z,99254.09
2017-11-11T05:03:24.237Z,99244.85
2017-11-11T05:05:50.578Z,99246.14
2017-11-11T05:08:16.530Z,99254.37
2017-11-11T05:10:42.475Z,99253.16
2017-11-11T05:13:08.435Z,99251.93
2017-11-11T05:15:34.405Z,99256.53
2017-11-11T05:18:00.418Z,99246.89
2017-11-11T05:20:26.379Z,99249.83
2017-11-11T05:22:52.363Z,99253.55
2017-11-11T05:25:18.323Z,99254.00
2017-11-11T05:27:44.316Z,99253.14
2017-11-11T05:30:10.324Z,99254.83
2017-11-11T05:32:36.310Z,99238.44
2017-11-11T05:35:02.276Z,99249.39
2017-11-11T05:37:28.237Z,99242.22
2017-11-11T05:39:54.178Z,99242.21
2017-11-11T05:42:20.115Z,99238.09
2017-11-11T05:44:46.089Z,99232.14
2017-11-11T05:47:12.025Z,99224.59
2017-11-11T05:49:37.970Z,99228.38
2017-11-11T05:52:03.937Z,99229.31
2017-11-11T05:54:29.931Z,99227.13
2017-11-11T05:56:55.899Z,99222.55
2017-11-11T05:59:21.837Z,99221.67
2017-11-11T06:01:47.839Z,99219.55
2017-11-11T06:04:13.795Z,99224.16
2017-11-11T06:06:39.728Z,99224.63
2017-11-11T06:09:05.737Z,99226.23
2017-11-11T06:11:31.749Z,99234.59
2017-11-11T06:13:57.752Z,99230.08
2017-11-11T06:16:23.773Z,99232.05
2017-11-11T06:18:49.812Z,99235.00
2017-11-11T06:21:15.825Z,99232.94
2017-11-11T06:23:41.847Z,99233.34
2017-11-11T06:26:07.841Z,99235.84
2017-11-11T06:28:33.850Z,99235.08
2017-11-11T06:30:59.996Z,99236.80
2017-11-11T06:33:25.989Z,99238.00
2017-11-11T06:35:52.027Z,99232.20
2017-11-11T06:38:18.063Z,99238.46
2017-11-11T06:40:44.065Z,99228.76
2017-11-11T06:43:10.081Z,99230.00
2017-11-11T06:45:36.085Z,99231.63
2017-11-11T06:48:02.085Z,99230.45
2017-11-11T06:50:28.075Z,99233.39
2017-11-11T06:52:54.093Z,99235.11
2017-11-11T06:55:20.110Z,99230.58
2017-11-11T06:57:46.127Z,99232.29
2017-11-11T07:00:12.147Z,99231.50
2017-11-11T07:02:38.204Z,99236.94
2017-11-11T07:05:04.185Z,99236.52
2017-11-11T07:07:30.213Z,99242.52
2017-11-11T07:09:56.215Z,99251.28
2017-11-11T07:12:22.255Z,99255.88
2017-11-11T07:14:48.293Z,99239.13
2017-11-11T07:17:14.311Z,99246.59
2017-11-11T07:19:40.300Z,99246.16
2017-11-11T07:22:06.293Z,99244.91
2017-11-11T07:24:32.313Z,99245.35
2017-11-11T07:26:58.346Z,99245.36
2017-11-11T07:29:24.353Z,99242.84
2017-11-11T07:31:50.359Z,99230.22
2017-11-11T07:34:16.377Z,99244.15
2017-11-11T07:36:42.389Z,99240.83
2017-11-11T07:39:08.425Z,99228.12
2017-11-11T07:41:35.157Z,99234.86
2017-11-11T07:44:01.174Z,99223.13
2017-11-11T07:46:27.164Z,99221.99
2017-11-11T07:48:53.172Z,99219.10
2017-11-11T07:51:19.177Z,99206.09
2017-11-11T07:53:45.191Z,99204.84
2017-11-11T07:56:11.208Z,99218.25
2017-11-11T07:58:37.196Z,99204.41
2017-11-11T08:01:03.195Z,99205.66
2017-11-11T08:03:29.181Z,99188.47
2017-11-11T08:05:55.223Z,99199.80
2017-11-11T08:08:21.238Z,99201.06
2017-11-11T08:10:47.233Z,99203.58
2017-11-11T08:13:13.281Z,99202.73
2017-11-11T08:15:39.295Z,99196.45
2017-11-11T08:18:05.305Z,99196.00
2017-11-11T08:20:31.322Z,99180.06
2017-11-11T08:22:57.345Z,99193.91
2017-11-11T08:25:23.409Z,99183.84
2017-11-11T08:27:49.426Z,99186.36
2017-11-11T08:30:15.451Z,99183.83
2017-11-11T08:32:41.445Z,99182.58
2017-11-11T08:35:07.453Z,99175.45
2017-11-11T08:37:33.523Z,99169.56
2017-11-11T08:39:59.563Z,99170.42
2017-11-11T08:42:25.610Z,99162.02
2017-11-11T08:44:51.645Z,99155.30
2017-11-11T08:47:17.641Z,99168.75
2017-11-11T08:49:43.637Z,99156.49
2017-11-11T08:52:09.620Z,99147.34
2017-11-11T08:54:35.644Z,99153.66
2017-11-11T08:57:01.645Z,99153.17
2017-11-11T08:59:27.667Z,99154.44
2017-11-11T09:01:53.660Z,99145.99
2017-11-11T09:04:19.716Z,99147.63
2017-11-11T09:06:45.701Z,99148.09
2017-11-11T09:09:11.732Z,99141.73
2017-11-11T09:11:37.737Z,99146.83
2017-11-11T09:14:03.765Z,99147.30
2017-11-11T09:16:29.801Z,99155.72
2017-11-11T09:18:55.824Z,99150.72
2017-11-11T09:21:21.824Z,99164.13
2017-11-11T09:23:47.877Z,99153.23
2017-11-11T09:26:13.859Z,99162.86
2017-11-11T09:28:39.885Z,99146.87
2017-11-11T09:31:05.924Z,99152.76
2017-11-11T09:33:31.933Z,99143.55
2017-11-11T09:35:57.980Z,99146.89
2017-11-11T09:38:23.974Z,99134.22
2017-11-11T09:40:49.990Z,99133.84
2017-11-11T09:43:16.050Z,99127.91
2017-11-11T09:45:42.091Z,99128.75
2017-11-11T09:48:08.150Z,99126.20
2017-11-11T09:50:34.148Z,99120.81
2017-11-11T09:53:01.199Z,99124.59
2017-11-11T09:55:27.219Z,99119.95
2017-11-11T09:57:53.230Z,99115.81
2017-11-11T10:00:19.226Z,99117.52
2017-11-11T10:02:45.230Z,99113.73
2017-11-11T10:05:11.322Z,99112.91
2017-11-11T10:07:37.324Z,99110.39
2017-11-11T10:10:03.324Z,99099.45
2017-11-11T10:12:29.337Z,99097.80
2017-11-11T10:14:55.342Z,99105.70
2017-11-11T10:17:21.374Z,99106.15
2017-11-11T10:19:47.399Z,99095.23
2017-11-11T10:22:13.401Z,99095.52
2017-11-11T10:24:39.418Z,99090.43
2017-11-11T10:27:05.388Z,99088.78
2017-11-11T10:29:31.380Z,99102.69
2017-11-11T10:31:57.371Z,99088.50
2017-11-11T10:34:23.372Z,99116.58
2017-11-11T10:36:49.363Z,99103.98
2017-11-11T10:39:15.368Z,99115.77
2017-11-11T10:41:41.452Z,99110.80
2017-11-11T10:44:07.446Z,99105.83
2017-11-11T10:46:33.440Z,99105.39
2017-11-11T10:48:59.455Z,99106.22
2017-11-11T10:51:25.468Z,99100.78
2017-11-11T10:53:51.538Z,99092.36
2017-11-11T10:56:17.572Z,99095.73
2017-11-11T10:58:43.559Z,99084.39
2017-11-11T11:01:09.539Z,99079.80
2017-11-11T11:03:35.532Z,99080.22
2017-11-11T11:06:01.543Z,99088.20
2017-11-11T11:08:27.556Z,99083.53
2017-11-11T11:10:53.542Z,99078.53
2017-11-11T11:13:19.580Z,99070.96
2017-11-11T11:15:45.557Z,99067.62
2017-11-11T11:18:11.583Z,99075.19
2017-11-11T11:20:37.586Z,99070.14
2017-11-11T11:23:03.590Z,99063.02
2017-11-11T11:25:33.230Z,99061.31
2017-11-11T11:27:59.225Z,99056.27
2017-11-11T11:30:25.229Z,99046.16
2017-11-11T11:32:51.229Z,99044.92
2017-11-11T11:35:17.228Z,99038.62
2017-11-11T11:37:43.267Z,99034.77
2017-11-11T11:40:09.269Z,99034.80
2017-11-11T11:42:35.287Z,99033.47
2017-11-11T11:45:01.273Z,99022.53
2017-11-11T11:47:27.281Z,99022.98
2017-11-11T11:49:53.293Z,99011.70
2017-11-11T11:52:19.305Z,99013.80
2017-11-11T11:54:45.371Z,99002.47
2017-11-11T11:57:11.361Z,98989.47
2017-11-11T11:59:37.362Z,98986.95
2017-11-11T12:02:03.365Z,98994.81
2017-11-11T12:04:29.379Z,98986.05
2017-11-11T12:06:55.389Z,98987.78
2017-11-11T12:09:21.393Z,98978.95
2017-11-11T12:11:47.417Z,98985.29
2017-11-11T12:14:13.409Z,98980.19
2017-11-11T12:16:39.452Z,98973.84
2017-11-11T12:19:05.471Z,98962.42
2017-11-11T12:21:31.472Z,98959.75
2017-11-11T12:23:57.452Z,98946.72
2017-11-11T12:26:24.476Z,98948.08
2017-11-11T12:28:50.485Z,98953.53
2017-11-11T12:31:16.501Z,98943.05
2017-11-11T12:33:42.539Z,98945.55
2017-11-11T12:36:08.522Z,98943.05
2017-11-11T12:38:34.631Z,98939.69
2017-11-11T12:41:00.635Z,98930.44
2017-11-11T12:43:26.637Z,98926.20
2017-11-11T12:45:52.629Z,98919.53
2017-11-11T12:48:18.618Z,98913.38
2017-11-11T12:50:44.879Z,98920.45
2017-11-11T12:53:10.960Z,98917.44
2017-11-11T12:55:37.002Z,98925.41
2017-11-11T12:58:02.990Z,98914.02
2017-11-11T13:00:28.985Z,98911.92
2017-11-11T13:02:55.058Z,98893.89
2017-11-11T13:05:21.081Z,98894.30
2017-11-11T13:07:47.081Z,98891.76
2017-11-11T13:10:13.069Z,98890.52
2017-11-11T13:12:39.197Z,98888.85
2017-11-11T13:15:05.179Z,98885.47
2017-11-11T13:17:31.171Z,98878.66
2017-11-11T13:19:57.221Z,98889.64
2017-11-11T13:22:23.226Z,98872.34
2017-11-11T13:24:49.262Z,98880.42
2017-11-11T13:27:15.284Z,98877.48
2017-11-11T13:29:41.285Z,98879.47
2017-11-11T13:32:07.299Z,98873.17
2017-11-11T13:34:33.321Z,98872.00
2017-11-11T13:36:59.299Z,98874.52
2017-11-11T13:39:25.304Z,98863.58
2017-11-11T13:41:51.314Z,98865.66
2017-11-11T13:44:17.319Z,98856.11
2017-11-11T13:49:17.292Z,98861.12
2017-11-11T13:51:43.287Z,98853.23
2017-11-11T13:54:09.303Z,98865.05
2017-11-11T13:56:35.405Z,98862.94
2017-11-11T13:59:01.410Z,98870.55
2017-11-11T14:01:27.476Z,98877.19
2017-11-11T14:03:53.540Z,98875.99
2017-11-11T14:06:19.525Z,98867.16
2017-11-11T14:08:45.616Z,98861.86
2017-11-11T14:11:11.608Z,98857.28
2017-11-11T14:13:37.592Z,98868.04
2017-11-11T14:16:03.590Z,98855.89
2017-11-11T14:18:29.599Z,98855.45
2017-11-11T14:20:55.605Z,98863.00
2017-11-11T14:23:21.607Z,98855.98
2017-11-11T14:25:47.683Z,98853.48
2017-11-11T14:28:13.840Z,98857.92
2017-11-11T14:30:39.832Z,98855.99
2017-11-11T14:33:05.871Z,98844.26
2017-11-11T14:35:31.864Z,98842.63
2017-11-11T14:37:57.896Z,98835.82
2017-11-11T14:40:23.900Z,98832.50
2017-11-11T14:42:49.938Z,98821.59
2017-11-11T14:45:15.940Z,98829.16
2017-11-11T14:47:41.965Z,98811.56
2017-11-11T14:50:07.997Z,98818.98
2017-11-11T14:52:34.052Z,98816.78
2017-11-11T14:55:00.143Z,98810.84
2017-11-11T14:57:26.128Z,98801.55
2017-11-11T14:59:52.108Z,98800.52
2017-11-11T15:02:18.134Z,98797.81
2017-11-11T15:04:44.130Z,98793.73
2017-11-11T15:07:10.124Z,98797.98
2017-11-11T15:09:36.154Z,98794.02
2017-11-11T15:12:02.132Z,98795.73
2017-11-11T15:14:28.147Z,98791.19
2017-11-11T15:16:54.142Z,98786.94
2017-11-11T15:19:20.129Z,98779.86
2017-11-11T15:21:46.141Z,98765.52
2017-11-11T15:24:12.255Z,98761.73
2017-11-11T15:26:38.354Z,98767.69
2017-11-11T15:29:04.353Z,98772.80
2017-11-11T15:31:30.355Z,98772.72
2017-11-11T15:33:56.366Z,98764.84
2017-11-11T15:36:22.393Z,98764.40
2017-11-11T15:38:48.391Z,98756.53
2017-11-11T15:41:14.496Z,98766.20
2017-11-11T15:43:40.501Z,98759.94
2017-11-11T15:46:06.496Z,98766.91
2017-11-11T15:48:32.593Z,98763.14
2017-11-11T15:50:58.585Z,98768.13
2017-11-11T15:53:24.635Z,98761.50
2017-11-11T15:55:50.621Z,98758.18
2017-11-11T15:58:16.667Z,98760.73
2017-11-11T16:00:42.672Z,98752.81
2017-11-11T16:03:08.703Z,98755.33
2017-11-11T16:05:34.689Z,98751.46
2017-11-11T16:08:00.766Z,98751.49
2017-11-11T16:10:26.777Z,98744.37
2017-11-11T16:12:52.769Z,98757.72
2017-11-11T16:15:18.951Z,98762.26
2017-11-11T16:17:44.965Z,98759.39
2017-11-11T16:20:10.964Z,98761.74
2017-11-11T16:22:37.029Z,98763.84
2017-11-11T16:25:03.028Z,98765.69
2017-11-11T16:27:29.054Z,98760.94
2017-11-11T16:29:55.051Z,98758.16
2017-11-11T16:32:21.067Z,98758.66
2017-11-11T16:34:47.127Z,98756.39
2017-11-11T16:37:13.119Z,98749.29
2017-11-11T16:39:39.138Z,98747.17
2017-11-11T16:42:05.145Z,98750.17
2017-11-11T16:44:31.149Z,98752.05
2017-11-11T16:46:57.169Z,98747.82
2017-11-11T16:49:23.176Z,98747.86
2017-11-11T16:51:49.165Z,98745.39
2017-11-11T16:54:15.177Z,98748.38
2017-11-11T16:56:41.186Z,98746.23
2017-11-11T16:59:07.192Z,98750.98
2017-11-11T17:01:33.299Z,98752.18
2017-11-11T17:03:59.311Z,98745.38
2017-11-11T17:06:25.317Z,98746.20
2017-11-11T17:08:51.313Z,98734.93
2017-11-11T17:11:17.295Z,98739.94
2017-11-11T17:13:43.309Z,98740.83
2017-11-11T17:16:09.302Z,98739.14
2017-11-11T17:18:35.345Z,98740.02
2017-11-11T17:21:01.363Z,98745.95
2017-11-11T17:23:27.328Z,98737.88
2017-11-11T17:25:53.273Z,98734.09
2017-11-11T17:28:19.211Z,98734.11
2017-11-11T17:30:45.179Z,98731.18
2017-11-11T17:33:11.134Z,98724.08
2017-11-11T17:35:37.069Z,98728.26
2017-11-11T17:38:03.033Z,98727.09
2017-11-11T17:40:28.999Z,98729.53
2017-11-11T17:42:54.969Z,98722.05
2017-11-11T17:45:20.933Z,98727.43
2017-11-11T17:47:46.984Z,98730.41
2017-11-11T17:50:12.945Z,98726.27
2017-11-11T17:52:38.955Z,98730.95
2017-11-11T17:55:04.883Z,98727.55
2017-11-11T17:57:30.831Z,98727.90
2017-11-11T17:59:56.785Z,98714.97
2017-11-11T18:02:22.737Z,98722.02
2017-11-11T18:04:48.684Z,98726.67
2017-11-11T18:07:14.765Z,98730.42
2017-11-11T18:09:40.690Z,98721.69
2017-11-11T18:12:06.637Z,98722.08
2017-11-11T18:14:32.571Z,98716.99
2017-11-11T18:16:58.506Z,98718.25
2017-11-11T18:19:24.454Z,98719.06
2017-11-11T18:21:50.395Z,98717.42
2017-11-11T18:24:16.341Z,98712.42
2017-11-11T18:26:42.285Z,98711.14
2017-11-11T18:29:08.241Z,98706.48
2017-11-11T18:31:34.191Z,98698.35
2017-11-11T18:34:00.141Z,98699.09
2017-11-11T18:36:26.093Z,98697.39
2017-11-11T18:38:52.053Z,98702.77
2017-11-11T18:41:18.211Z,98705.83
2017-11-11T18:43:44.209Z,98711.65
2017-11-11T18:46:10.157Z,98715.00
2017-11-11T18:48:36.129Z,98717.88
2017-11-11T18:51:02.072Z,98717.53
2017-11-11T18:53:29.517Z,98722.90
2017-11-11T18:55:55.450Z,98725.44
2017-11-11T18:58:21.557Z,98716.62
2017-11-11T19:00:47.502Z,98715.33
2017-11-11T19:03:13.531Z,98721.69
2017-11-11T19:05:39.509Z,98717.00
2017-11-11T19:08:05.472Z,98712.86
2017-11-11T19:10:31.430Z,98718.38
2017-11-11T19:12:57.363Z,98709.15
2017-11-11T19:15:23.352Z,98709.52
2017-11-11T19:17:49.469Z,98719.59
2017-11-11T19:20:15.409Z,98722.91
2017-11-11T19:22:41.366Z,98722.91
2017-11-11T19:25:07.306Z,98723.42
2017-11-11T19:27:33.242Z,98722.53
2017-11-11T19:29:59.208Z,98715.87
2017-11-11T19:32:25.161Z,98716.69
2017-11-11T19:34:51.089Z,98708.76
2017-11-11T19:37:17.041Z,98710.52
2017-11-11T19:39:42.985Z,98707.13
2017-11-11T19:42:08.963Z,98711.84
2017-11-11T19:44:34.897Z,98704.70
2017-11-11T19:47:00.829Z,98712.24
2017-11-11T19:49:26.763Z,98702.62
2017-11-11T19:51:52.688Z,98705.96
2017-11-11T19:54:18.643Z,98705.16
2017-11-11T19:56:44.569Z,98700.54
2017-11-11T19:59:10.525Z,98700.44
2017-11-11T20:01:36.549Z,98702.50
2017-11-11T20:04:02.498Z,98703.45
2017-11-11T20:06:28.836Z,98713.91
2017-11-11T20:08:54.849Z,98714.67
2017-11-11T20:11:20.791Z,98715.65
2017-11-11T20:13:46.809Z,98720.58
2017-11-11T20:16:12.741Z,98720.61
2017-11-11T20:18:38.702Z,98722.98
2017-11-11T20:21:04.653Z,98730.34
2017-11-11T20:23:30.675Z,98729.64
2017-11-11T20:25:56.624Z,98741.20
2017-11-11T20:28:22.605Z,98737.20
2017-11-11T20:30:48.537Z,98736.16
2017-11-11T20:33:14.503Z,98741.08
2017-11-11T20:35:40.463Z,98740.99
2017-11-11T20:38:06.501Z,98738.16
2017-11-11T20:40:32.450Z,98738.09
2017-11-11T20:42:58.444Z,98738.19
2017-11-11T20:45:24.399Z,98746.61
2017-11-11T20:47:50.341Z,98740.64
2017-11-11T20:50:16.301Z,98741.81
2017-11-11T20:52:42.231Z,98739.39
2017-11-11T20:55:08.183Z,98736.73
2017-11-11T20:57:34.139Z,98739.16
2017-11-11T21:00:00.088Z,98743.03
2017-11-11T21:02:26.044Z,98740.04
2017-11-11T21:04:52.051Z,98742.96
2017-11-11T21:07:18.084Z,98750.19
2017-11-11T21:09:44.034Z,98749.51
2017-11-11T21:12:10.001Z,98755.09
2017-11-11T21:14:36.087Z,98752.33
2017-11-11T21:17:02.055Z,98763.34
2017-11-11T21:19:28.018Z,98761.77
2017-11-11T21:21:53.991Z,98763.12
2017-11-11T21:24:19.948Z,98754.06
2017-11-11T21:26:45.884Z,98761.92
2017-11-11T21:29:11.885Z,98769.27
2017-11-11T21:31:37.821Z,98777.39
2017-11-11T21:34:03.752Z,98782.34
2017-11-11T21:36:29.760Z,98777.42
2017-11-11T21:38:55.800Z,98780.41
2017-11-11T21:41:21.830Z,98778.71
2017-11-11T21:43:47.817Z,98773.70
2017-11-11T21:46:13.854Z,98782.30
2017-11-11T21:48:39.789Z,98784.52
2017-11-11T21:51:05.731Z,98791.38
2017-11-11T21:53:31.673Z,98791.19
2017-11-11T21:55:57.611Z,98792.99
2017-11-11T21:58:23.538Z,98795.42
2017-11-11T22:00:49.465Z,98806.71
2017-11-11T22:03:15.435Z,98802.55
2017-11-11T22:05:41.393Z,98804.39
2017-11-11T22:08:07.495Z,98808.70
2017-11-11T22:10:33.428Z,98812.83
2017-11-11T22:12:59.370Z,98808.83
2017-11-11T22:15:25.313Z,98812.95
2017-11-11T22:17:51.244Z,98814.09
2017-11-11T22:20:17.215Z,98815.31
2017-11-11T22:22:43.183Z,98812.58
2017-11-11T22:25:09.140Z,98818.43
2017-11-11T22:27:35.091Z,98816.59
2017-11-11T22:30:01.025Z,98817.20
2017-11-11T22:32:26.993Z,98824.05
2017-11-11T22:34:52.950Z,98814.89
2017-11-11T22:37:22.832Z,98810.63
2017-11-11T22:39:48.826Z,98819.81
2017-11-11T22:42:14.790Z,98819.77
2017-11-11T22:44:40.780Z,98823.17
2017-11-11T22:47:06.720Z,98822.37
2017-11-11T22:49:32.684Z,98824.50
2017-11-11T22:51:58.619Z,98831.14
2017-11-11T22:54:24.557Z,98829.57
2017-11-11T22:56:50.523Z,98830.30
2017-11-11T22:59:16.501Z,98832.40
2017-11-11T23:01:42.542Z,98824.38
2017-11-11T23:04:08.477Z,98822.44
2017-11-11T23:06:34.405Z,98830.03
2017-11-11T23:09:00.358Z,98832.91
2017-11-11T23:11:26.308Z,98840.05
2017-11-11T23:13:52.357Z,98845.86
2017-11-11T23:16:18.288Z,98840.95
2017-11-11T23:18:44.218Z,98846.30
2017-11-11T23:21:10.176Z,98841.72
2017-11-11T23:23:36.127Z,98850.02
2017-11-11T23:26:02.095Z,98852.94
2017-11-11T23:28:28.029Z,98844.73
2017-11-11T23:30:53.973Z,98853.11
2017-11-11T23:33:21.860Z,98844.63
2017-11-11T23:35:47.826Z,98848.98
2017-11-11T23:38:13.778Z,98855.66
2017-11-11T23:40:39.706Z,98858.34
2017-11-11T23:43:05.637Z,98859.06
2017-11-11T23:45:31.615Z,98849.36
2017-11-11T23:47:57.556Z,98852.27
2017-11-11T23:50:23.488Z,98857.09
2017-11-11T23:52:49.437Z,98852.80
2017-11-11T23:55:15.364Z,98856.96
2017-11-11T23:57:41.332Z,98860.70
